Have a Safe July 4th! 

Flight Track Log - Related Links

Times and Time Zones

All times are in EDT time to prevent confusion due to time zone crossing. See the RPA3321 flight status page for this flight to view local times or setup timezone preferences in your user account.

Time Position Orientation Groundspeed Altitude Reporting Facility
EDT Latitude Longitude Course Direction KTS MPH feet Rate Location/Type
Sun 11:18:21 AM 38.8000 -77.0333 225° Southwest 177 204 1,500  Level Potomac TRACON
Sun 11:19:21 AM 38.7500 -77.0500 195° South 233 268 3,800 2,407 Climbing Potomac TRACON
Sun 11:20:00 AM 38.6389 -77.2778 218° Southwest  Level FlightAware Approximate
Sun 11:21:00 AM 38.5619 -77.3548 218° Southwest  Level FlightAware Approximate
Sun 11:21:03 AM 38.6758 -77.1581 229° Southwest 270 311 8,000  Level Washington Center
Sun 11:22:00 AM 38.4900 -77.4391 225° Southwest  Level FlightAware Approximate
Sun 11:22:03 AM 38.6250 -77.2339 229° Southwest 270 311 10,800  Level Washington Center
Sun 11:23:00 AM 38.4211 -77.5276 225° Southwest  Level FlightAware Approximate
Sun 11:23:03 AM 38.5697 -77.3125 228° Southwest 285 328 13,100  Level Washington Center
Sun 11:24:01 AM 38.5100 -77.4039 230° Southwest 311 358 15,300 2,136 Climbing Washington Center
Sun 11:25:01 AM 38.4481 -77.4925 228° Southwest 333 383 17,300 1,983 Climbing Washington Center
Sun 11:26:02 AM 38.3839 -77.5889 230° Southwest 346 398 19,300 1,918 Climbing Washington Center
Sun 11:27:03 AM 38.3219 -77.6825 230° Southwest 351 404 21,200 1,785 Climbing Washington Center
Sun 11:28:03 AM 38.2556 -77.7836 230° Southwest 362 417 22,900 1,576 Climbing Washington Center
Sun 11:29:01 AM 38.1844 -77.8925 230° Southwest 374 430 24,300 1,412 Climbing Washington Center
Sun 11:30:02 AM 38.1158 -77.9986 231° Southwest 374 430 25,700 1,339 Climbing Washington Center
Sun 11:31:02 AM 38.0447 -78.1044 230° Southwest 385 443 27,000 1,140 Climbing Washington Center
Sun 11:32:03 AM 37.9800 -78.2106 232° Southwest 385 443 28,000 504 Climbing Washington Center
Sun 11:33:01 AM 37.9044 -78.3183 228° Southwest 398 458 28,000  Level Washington Center
Sun 11:34:02 AM 37.8247 -78.4311 228° Southwest 415 478 28,000  Level Washington Center
Sun 11:35:03 AM 37.7450 -78.5436 228° Southwest 427 491 28,000  Level Washington Center
Sun 11:36:01 AM 37.6756 -78.6458 229° Southwest 432 497 28,000  Level Washington Center
Sun 11:37:01 AM 37.5956 -78.7581 228° Southwest 432 497 28,000  Level Washington Center
Sun 11:38:01 AM 37.5153 -78.8700 228° Southwest 426 490 28,000  Level Washington Center
Sun 11:39:03 AM 37.4350 -78.9814 228° Southwest 426 490 28,000  Level Washington Center
Sun 11:40:03 AM 37.3567 -79.0931 229° Southwest 426 490 28,000  Level Washington Center
Sun 11:41:01 AM 37.2675 -79.2169 228° Southwest 431 496 28,000  Level Washington Center
Sun 11:42:01 AM 37.1689 -79.3061 216° Southwest 431 496 28,000  Level Washington Center
Sun 11:43:01 AM 37.0681 -79.3922 214° Southwest 436 502 28,000  Level Washington Center
Sun 11:44:03 AM 36.9653 -79.4756 213° Southwest 442 509 28,000  Level Washington Center
Sun 11:45:04 AM 36.8644 -79.5589 213° Southwest 447 514 28,000  Level Washington Center
Sun 11:46:01 AM 36.7742 -79.6344 214° Southwest 447 514 28,000  Level Washington Center
Sun 11:47:02 AM 36.6692 -79.7172 212° Southwest 447 514 28,000 -146 Level Washington Center
Sun 11:48:04 AM 36.5486 -79.8111 212° Southwest 437 503 27,700 -1,328 Descending Atlanta Center
Sun 11:49:04 AM 36.4469 -79.8911 212° Southwest 437 503 25,300 -2,700 Descending Atlanta Center
Sun 11:50:04 AM 36.3497 -79.9761 215° Southwest 443 510 22,300 -1,650 Descending Atlanta Center
Sun 11:51:04 AM 36.2564 -80.0503 213° Southwest 423 487 22,000 -150 Descending Atlanta Center
Sun 11:52:04 AM 36.1731 -80.1239 215° Southwest 413 475 22,000 -850 Level Atlanta Center
Sun 11:53:04 AM 36.0817 -80.2028 215° Southwest 408 470 20,300 -2,343 Descending Atlanta Center
Sun 11:53:49 AM 36.0089 -80.2706 217° Southwest 397 457 17,900 -2,899 Descending Atlanta Center
Sun 11:54:33 AM 35.9417 -80.3250 213° Southwest 378 435 16,000 -2,240 Descending Atlanta Center
Sun 11:55:04 AM 35.9069 -80.3522 212° Southwest 397 457 15,100 -2,459 Descending Atlanta Center
Sun 11:55:34 AM 35.8603 -80.3978 218° Southwest 356 410 13,500 -2,100 Descending Atlanta Center
Sun 11:56:04 AM 35.8256 -80.4225 210° Southwest 376 433 13,000 -733 Descending Atlanta Center
Sun 11:57:04 AM 35.7583 -80.4792 214° Southwest 327 376 12,400 -783 Descending Atlanta Center
Sun 11:57:36 AM 35.7200 -80.5242 224° Southwest 276 318 11,800 -1,613 Descending Atlanta Center
Sun 11:58:37 AM 35.6828 -80.6025 240° Southwest 268 308 9,900 -1,820 Descending Atlanta Center
Sun 11:59:38 AM 35.6686 -80.6953 259° West 269 310 8,100 -1,172 Descending Atlanta Center
Sun 12:00:45 PM 35.6583 -80.7850 262° West 233 268 7,400 -836 Descending Atlanta Center
Sun 12:01:40 PM 35.6222 -80.8350 228° Southwest 198 228 6,400 -724 Descending Atlanta Center
Sun 12:02:41 PM 35.5750 -80.8700 211° Southwest 205 236 6,000 -295 Descending Atlanta Center
Sun 12:03:42 PM 35.5281 -80.9103 215° Southwest 207 238 5,800 -443 Descending Atlanta Center
Sun 12:04:43 PM 35.4792 -80.9478 212° Southwest 207 238 5,100 -787 Descending Atlanta Center
Sun 12:05:44 PM 35.4256 -80.9753 203° Southwest 212 244 4,200 -836 Descending Atlanta Center
Sun 12:06:45 PM 35.3669 -80.9672 174° South 190 219 3,400 -885 Descending Atlanta Center
Sun 12:07:46 PM 35.3147 -80.9642 177° South 183 211 2,400 -934 Descending Atlanta Center
Sun 12:08:47 PM 35.2664 -80.9583 174° South 175 201 1,500 -885 Descending Atlanta Center

Login

Don't have an account? Register now (free) for customized features, flight alerts, and more!